sensor_id;sensor_type;location;lat;lon;timestamp;pressure;altitude;pressure_sealevel;temperature;humidity
48216;BME280;34005;48.844;10.098;2023-03-04T00:00:30;97107.66;;;2.45;61.28
48216;BME280;34005;48.844;10.098;2023-03-04T00:02:58;97109.53;;;2.43;61.43
48216;BME280;34005;48.844;10.098;2023-03-04T00:05:26;97112.22;;;2.41;61.06
48216;BME280;34005;48.844;10.098;2023-03-04T00:07:53;97110.44;;;2.42;61.27
48216;BME280;34005;48.844;10.098;2023-03-04T00:10:23;97109.84;;;2.38;61.25
48216;BME280;34005;48.844;10.098;2023-03-04T00:12:50;97108.22;;;2.37;61.69
48216;BME280;34005;48.844;10.098;2023-03-04T00:15:18;97112.69;;;2.35;61.50
48216;BME280;34005;48.844;10.098;2023-03-04T00:17:45;97105.06;;;2.34;61.32
48216;BME280;34005;48.844;10.098;2023-03-04T00:20:13;97107.78;;;2.32;61.53
48216;BME280;34005;48.844;10.098;2023-03-04T00:22:41;97104.72;;;2.27;61.51
48216;BME280;34005;48.844;10.098;2023-03-04T00:25:08;97106.13;;;2.20;61.52
48216;BME280;34005;48.844;10.098;2023-03-04T00:27:37;97106.38;;;2.17;61.98
48216;BME280;34005;48.844;10.098;2023-03-04T00:30:06;97103.81;;;2.17;62.31
48216;BME280;34005;48.844;10.098;2023-03-04T00:32:34;97101.94;;;2.19;62.34
48216;BME280;34005;48.844;10.098;2023-03-04T00:35:02;97096.66;;;2.20;62.26
48216;BME280;34005;48.844;10.098;2023-03-04T00:37:30;97095.13;;;2.18;62.17
48216;BME280;34005;48.844;10.098;2023-03-04T00:39:57;97098.66;;;2.17;62.11
48216;BME280;34005;48.844;10.098;2023-03-04T00:42:25;97099.47;;;2.17;62.41
48216;BME280;34005;48.844;10.098;2023-03-04T00:44:54;97103.22;;;2.13;62.30
48216;BME280;34005;48.844;10.098;2023-03-04T00:47:21;97093.38;;;2.07;63.01
48216;BME280;34005;48.844;10.098;2023-03-04T00:49:49;97095.84;;;2.09;62.64
48216;BME280;34005;48.844;10.098;2023-03-04T00:52:16;97094.31;;;2.06;62.16
48216;BME280;34005;48.844;10.098;2023-03-04T00:54:44;97097.00;;;2.04;62.17
48216;BME280;34005;48.844;10.098;2023-03-04T00:57:11;97093.47;;;2.05;62.14
48216;BME280;34005;48.844;10.098;2023-03-04T00:59:39;97090.44;;;2.00;62.18
48216;BME280;34005;48.844;10.098;2023-03-04T01:02:10;97100.84;;;1.99;62.11
48216;BME280;34005;48.844;10.098;2023-03-04T01:04:38;97087.16;;;1.98;61.86
48216;BME280;34005;48.844;10.098;2023-03-04T01:07:07;97087.31;;;1.97;62.38
48216;BME280;34005;48.844;10.098;2023-03-04T01:09:34;97090.69;;;1.97;62.23
48216;BME280;34005;48.844;10.098;2023-03-04T01:12:02;97085.41;;;1.99;62.70
48216;BME280;34005;48.844;10.098;2023-03-04T01:14:30;97084.94;;;2.05;62.36
48216;BME280;34005;48.844;10.098;2023-03-04T01:16:57;97074.31;;;2.10;62.43
48216;BME280;34005;48.844;10.098;2023-03-04T01:19:26;97080.16;;;2.12;62.08
48216;BME280;34005;48.844;10.098;2023-03-04T01:21:54;97073.13;;;2.14;62.31
48216;BME280;34005;48.844;10.098;2023-03-04T01:24:21;97074.31;;;2.10;62.23
48216;BME280;34005;48.844;10.098;2023-03-04T01:26:49;97072.78;;;2.07;63.31
48216;BME280;34005;48.844;10.098;2023-03-04T01:29:16;97066.72;;;2.19;63.12
48216;BME280;34005;48.844;10.098;2023-03-04T01:31:44;97065.66;;;2.22;62.45
48216;BME280;34005;48.844;10.098;2023-03-04T01:34:12;97066.81;;;2.18;62.12
48216;BME280;34005;48.844;10.098;2023-03-04T01:36:41;97071.50;;;2.13;62.55
48216;BME280;34005;48.844;10.098;2023-03-04T01:39:08;97064.16;;;2.08;62.62
48216;BME280;34005;48.844;10.098;2023-03-04T01:41:36;97063.31;;;2.08;62.64
48216;BME280;34005;48.844;10.098;2023-03-04T01:44:04;97063.09;;;2.11;62.25
48216;BME280;34005;48.844;10.098;2023-03-04T01:46:32;97054.78;;;2.07;62.36
48216;BME280;34005;48.844;10.098;2023-03-04T01:49:00;97064.00;;;1.98;62.60
48216;BME280;34005;48.844;10.098;2023-03-04T01:51:27;97052.31;;;1.94;62.76
48216;BME280;34005;48.844;10.098;2023-03-04T01:53:56;97059.69;;;1.99;62.84
48216;BME280;34005;48.844;10.098;2023-03-04T01:56:27;97062.50;;;1.96;62.57
48216;BME280;34005;48.844;10.098;2023-03-04T01:59:07;97065.88;;;1.96;63.95
48216;BME280;34005;48.844;10.098;2023-03-04T02:01:36;97055.47;;;1.98;63.01
48216;BME280;34005;48.844;10.098;2023-03-04T02:04:04;97051.03;;;2.00;62.63
48216;BME280;34005;48.844;10.098;2023-03-04T02:06:33;97059.81;;;1.97;62.78
48216;BME280;34005;48.844;10.098;2023-03-04T02:09:03;97058.41;;;1.93;62.88
48216;BME280;34005;48.844;10.098;2023-03-04T02:11:31;97060.75;;;1.96;63.72
48216;BME280;34005;48.844;10.098;2023-03-04T02:13:59;97062.59;;;2.05;63.96
48216;BME280;34005;48.844;10.098;2023-03-04T02:16:26;97061.78;;;2.16;64.18
48216;BME280;34005;48.844;10.098;2023-03-04T02:18:54;97061.31;;;2.22;63.10
48216;BME280;34005;48.844;10.098;2023-03-04T02:21:24;97061.78;;;2.16;62.73
48216;BME280;34005;48.844;10.098;2023-03-04T02:23:59;97062.75;;;2.04;62.36
48216;BME280;34005;48.844;10.098;2023-03-04T02:26:31;97059.22;;;1.94;63.08
48216;BME280;34005;48.844;10.098;2023-03-04T02:29:01;97061.34;;;1.89;63.42
48216;BME280;34005;48.844;10.098;2023-03-04T02:31:31;97052.66;;;1.90;64.04
48216;BME280;34005;48.844;10.098;2023-03-04T02:34:01;97058.41;;;2.04;64.06
48216;BME280;34005;48.844;10.098;2023-03-04T02:36:30;97061.66;;;2.18;62.94
48216;BME280;34005;48.844;10.098;2023-03-04T02:39:03;97062.38;;;2.20;62.09
48216;BME280;34005;48.844;10.098;2023-03-04T02:41:33;97056.28;;;2.10;61.83
48216;BME280;34005;48.844;10.098;2023-03-04T02:44:01;97055.13;;;2.02;61.92
48216;BME280;34005;48.844;10.098;2023-03-04T02:46:29;97062.03;;;1.91;61.92
48216;BME280;34005;48.844;10.098;2023-03-04T02:48:56;97056.28;;;1.76;62.33
48216;BME280;34005;48.844;10.098;2023-03-04T02:51:24;97060.38;;;1.67;62.38
48216;BME280;34005;48.844;10.098;2023-03-04T02:53:51;97063.06;;;1.65;62.29
48216;BME280;34005;48.844;10.098;2023-03-04T02:56:19;97055.78;;;1.59;62.44
48216;BME280;34005;48.844;10.098;2023-03-04T02:58:48;97059.53;;;1.55;62.35
48216;BME280;34005;48.844;10.098;2023-03-04T03:01:15;97054.63;;;1.52;62.43
48216;BME280;34005;48.844;10.098;2023-03-04T03:03:43;97049.09;;;1.46;62.15
48216;BME280;34005;48.844;10.098;2023-03-04T03:06:10;97060.66;;;1.40;62.27
48216;BME280;34005;48.844;10.098;2023-03-04T03:08:38;97045.91;;;1.31;62.56
48216;BME280;34005;48.844;10.098;2023-03-04T03:11:06;97053.25;;;1.24;62.44
48216;BME280;34005;48.844;10.098;2023-03-04T03:13:34;97050.66;;;1.13;62.96
48216;BME280;34005;48.844;10.098;2023-03-04T03:16:04;97051.91;;;1.07;63.34
48216;BME280;34005;48.844;10.098;2023-03-04T03:18:32;97045.16;;;1.06;63.95
48216;BME280;34005;48.844;10.098;2023-03-04T03:20:59;97056.94;;;1.09;63.75
48216;BME280;34005;48.844;10.098;2023-03-04T03:23:27;97059.41;;;1.10;63.27
48216;BME280;34005;48.844;10.098;2023-03-04T03:25:54;97060.31;;;1.09;63.97
48216;BME280;34005;48.844;10.098;2023-03-04T03:28:22;97060.13;;;1.12;63.60
48216;BME280;34005;48.844;10.098;2023-03-04T03:30:49;97062.97;;;1.20;64.35
48216;BME280;34005;48.844;10.098;2023-03-04T03:33:18;97053.88;;;1.28;63.35
48216;BME280;34005;48.844;10.098;2023-03-04T03:35:46;97053.97;;;1.26;62.86
48216;BME280;34005;48.844;10.098;2023-03-04T03:38:14;97062.50;;;1.27;62.95
48216;BME280;34005;48.844;10.098;2023-03-04T03:40:41;97060.41;;;1.20;62.74
48216;BME280;34005;48.844;10.098;2023-03-04T03:43:09;97062.97;;;1.20;63.55
48216;BME280;34005;48.844;10.098;2023-03-04T03:45:37;97057.59;;;1.23;63.34
48216;BME280;34005;48.844;10.098;2023-03-04T03:48:05;97053.16;;;1.26;63.33
48216;BME280;34005;48.844;10.098;2023-03-04T03:50:34;97051.63;;;1.23;62.58
48216;BME280;34005;48.844;10.098;2023-03-04T03:53:01;97048.47;;;1.19;62.53
48216;BME280;34005;48.844;10.098;2023-03-04T03:55:29;97047.97;;;1.14;62.60
48216;BME280;34005;48.844;10.098;2023-03-04T03:57:56;97055.53;;;1.05;62.64
48216;BME280;34005;48.844;10.098;2023-03-04T04:00:24;97051.16;;;0.94;62.91
48216;BME280;34005;48.844;10.098;2023-03-04T04:02:52;97052.63;;;0.85;63.09
48216;BME280;34005;48.844;10.098;2023-03-04T04:05:20;97055.78;;;0.77;63.28
48216;BME280;34005;48.844;10.098;2023-03-04T04:07:49;97051.06;;;0.71;63.43
48216;BME280;34005;48.844;10.098;2023-03-04T04:10:19;97053.03;;;0.68;63.80
48216;BME280;34005;48.844;10.098;2023-03-04T04:12:47;97052.13;;;0.69;63.21
48216;BME280;34005;48.844;10.098;2023-03-04T04:15:15;97054.44;;;0.72;63.82
48216;BME280;34005;48.844;10.098;2023-03-04T04:17:42;97060.28;;;0.74;63.97
48216;BME280;34005;48.844;10.098;2023-03-04T04:20:10;97056.50;;;0.79;63.67
48216;BME280;34005;48.844;10.098;2023-03-04T04:22:38;97052.97;;;0.80;63.54
48216;BME280;34005;48.844;10.098;2023-03-04T04:25:07;97052.41;;;0.77;63.55
48216;BME280;34005;48.844;10.098;2023-03-04T04:27:36;97047.59;;;0.72;63.59
48216;BME280;34005;48.844;10.098;2023-03-04T04:30:05;97048.72;;;0.68;63.54
48216;BME280;34005;48.844;10.098;2023-03-04T04:32:32;97048.84;;;0.67;63.59
48216;BME280;34005;48.844;10.098;2023-03-04T04:35:00;97054.41;;;0.60;63.77
48216;BME280;34005;48.844;10.098;2023-03-04T04:37:27;97057.28;;;0.56;64.16
48216;BME280;34005;48.844;10.098;2023-03-04T04:39:55;97055.22;;;0.61;64.07
48216;BME280;34005;48.844;10.098;2023-03-04T04:42:24;97051.72;;;0.62;63.92
48216;BME280;34005;48.844;10.098;2023-03-04T04:44:52;97051.72;;;0.62;63.60
48216;BME280;34005;48.844;10.098;2023-03-04T04:47:19;97048.56;;;0.58;63.57
48216;BME280;34005;48.844;10.098;2023-03-04T04:49:47;97050.72;;;0.52;63.95
48216;BME280;34005;48.844;10.098;2023-03-04T04:52:14;97051.88;;;0.48;63.83
48216;BME280;34005;48.844;10.098;2023-03-04T04:54:42;97047.88;;;0.44;63.69
48216;BME280;34005;48.844;10.098;2023-03-04T04:57:09;97053.47;;;0.37;63.92
48216;BME280;34005;48.844;10.098;2023-03-04T04:59:38;97050.38;;;0.32;64.15
48216;BME280;34005;48.844;10.098;2023-03-04T05:02:06;97052.56;;;0.26;64.20
48216;BME280;34005;48.844;10.098;2023-03-04T05:04:33;97052.88;;;0.21;64.32
48216;BME280;34005;48.844;10.098;2023-03-04T05:07:01;97054.31;;;0.12;64.65
48216;BME280;34005;48.844;10.098;2023-03-04T05:09:28;97058.16;;;0.07;64.76
48216;BME280;34005;48.844;10.098;2023-03-04T05:11:56;97055.88;;;0.02;64.88
48216;BME280;34005;48.844;10.098;2023-03-04T05:14:23;97063.56;;;0.02;65.15
48216;BME280;34005;48.844;10.098;2023-03-04T05:16:52;97069.41;;;0.04;65.34
48216;BME280;34005;48.844;10.098;2023-03-04T05:19:20;97067.69;;;0.05;64.89
48216;BME280;34005;48.844;10.098;2023-03-04T05:21:48;97063.56;;;0.02;65.03
48216;BME280;34005;48.844;10.098;2023-03-04T05:24:15;97055.78;;;0.04;64.96
48216;BME280;34005;48.844;10.098;2023-03-04T05:26:43;97062.44;;;0.06;64.82
48216;BME280;34005;48.844;10.098;2023-03-04T05:29:10;97063.47;;;0.04;64.83
48216;BME280;34005;48.844;10.098;2023-03-04T05:31:38;97070.56;;;0.00;64.58
48216;BME280;34005;48.844;10.098;2023-03-04T05:34:07;97064.81;;;-0.04;64.94
48216;BME280;34005;48.844;10.098;2023-03-04T05:36:34;97066.25;;;0.01;65.61
48216;BME280;34005;48.844;10.098;2023-03-04T05:39:02;97060.28;;;0.13;65.72
48216;BME280;34005;48.844;10.098;2023-03-04T05:41:30;97071.97;;;0.17;64.89
48216;BME280;34005;48.844;10.098;2023-03-04T05:43:57;97065.22;;;0.16;64.51
48216;BME280;34005;48.844;10.098;2023-03-04T05:46:25;97072.78;;;0.17;64.55
48216;BME280;34005;48.844;10.098;2023-03-04T05:48:53;97073.63;;;0.18;64.38
48216;BME280;34005;48.844;10.098;2023-03-04T05:51:22;97071.47;;;0.12;64.12
48216;BME280;34005;48.844;10.098;2023-03-04T05:53:50;97077.63;;;0.09;64.46
48216;BME280;34005;48.844;10.098;2023-03-04T05:56:18;97074.94;;;0.11;65.06
48216;BME280;34005;48.844;10.098;2023-03-04T05:58:46;97075.88;;;0.10;64.38
48216;BME280;34005;48.844;10.098;2023-03-04T06:01:14;97076.78;;;0.09;64.55
48216;BME280;34005;48.844;10.098;2023-03-04T06:03:42;97073.09;;;0.13;64.72
48216;BME280;34005;48.844;10.098;2023-03-04T06:06:10;97073.81;;;0.15;64.14
48216;BME280;34005;48.844;10.098;2023-03-04T06:08:39;97081.31;;;0.18;64.45
48216;BME280;34005;48.844;10.098;2023-03-04T06:11:06;97078.53;;;0.21;64.33
48216;BME280;34005;48.844;10.098;2023-03-04T06:13:34;97084.38;;;0.23;64.51
48216;BME280;34005;48.844;10.098;2023-03-04T06:16:04;97088.59;;;0.24;64.31
48216;BME280;34005;48.844;10.098;2023-03-04T06:18:31;97086.03;;;0.24;64.44
48216;BME280;34005;48.844;10.098;2023-03-04T06:21:00;97090.84;;;0.29;64.24
48216;BME280;34005;48.844;10.098;2023-03-04T06:23:29;97096.78;;;0.29;63.90
48216;BME280;34005;48.844;10.098;2023-03-04T06:25:59;97098.72;;;0.26;64.31
48216;BME280;34005;48.844;10.098;2023-03-04T06:28:27;97099.25;;;0.31;64.59
48216;BME280;34005;48.844;10.098;2023-03-04T06:30:55;97108.25;;;0.36;64.24
48216;BME280;34005;48.844;10.098;2023-03-04T06:33:24;97104.56;;;0.40;63.98
48216;BME280;34005;48.844;10.098;2023-03-04T06:35:53;97111.66;;;0.37;64.05
48216;BME280;34005;48.844;10.098;2023-03-04T06:38:23;97115.06;;;0.37;64.32
48216;BME280;34005;48.844;10.098;2023-03-04T06:40:51;97114.59;;;0.44;64.83
48216;BME280;34005;48.844;10.098;2023-03-04T06:43:23;97112.66;;;0.47;65.07
48216;BME280;34005;48.844;10.098;2023-03-04T06:45:51;97112.56;;;0.49;65.03
48216;BME280;34005;48.844;10.098;2023-03-04T06:48:19;97114.19;;;0.50;65.26
48216;BME280;34005;48.844;10.098;2023-03-04T06:50:46;97121.69;;;0.53;65.50
48216;BME280;34005;48.844;10.098;2023-03-04T06:53:14;97120.75;;;0.54;65.44
48216;BME280;34005;48.844;10.098;2023-03-04T06:55:41;97125.16;;;0.52;65.96
48216;BME280;34005;48.844;10.098;2023-03-04T06:58:11;97123.22;;;0.55;65.92
48216;BME280;34005;48.844;10.098;2023-03-04T07:00:40;97133.41;;;0.57;65.75
48216;BME280;34005;48.844;10.098;2023-03-04T07:03:08;97135.13;;;0.56;65.98
48216;BME280;34005;48.844;10.098;2023-03-04T07:05:35;97140.88;;;0.60;66.04
48216;BME280;34005;48.844;10.098;2023-03-04T07:08:03;97140.22;;;0.69;65.96
48216;BME280;34005;48.844;10.098;2023-03-04T07:10:32;97142.84;;;0.80;66.02
48216;BME280;34005;48.844;10.098;2023-03-04T07:13:00;97146.44;;;0.91;65.56
48216;BME280;34005;48.844;10.098;2023-03-04T07:15:28;97150.19;;;0.98;65.55
48216;BME280;34005;48.844;10.098;2023-03-04T07:17:57;97144.25;;;0.97;65.36
48216;BME280;34005;48.844;10.098;2023-03-04T07:20:24;97151.03;;;0.98;66.06
48216;BME280;34005;48.844;10.098;2023-03-04T07:22:52;97155.94;;;1.01;65.68
48216;BME280;34005;48.844;10.098;2023-03-04T07:25:19;97161.19;;;1.00;65.58
48216;BME280;34005;48.844;10.098;2023-03-04T07:27:47;97149.47;;;0.96;66.02
48216;BME280;34005;48.844;10.098;2023-03-04T07:30:15;97170.50;;;0.90;66.08
48216;BME280;34005;48.844;10.098;2023-03-04T07:32:42;97169.78;;;0.88;66.50
48216;BME280;34005;48.844;10.098;2023-03-04T07:35:11;97175.81;;;0.87;66.77
48216;BME280;34005;48.844;10.098;2023-03-04T07:37:39;97176.16;;;0.82;66.66
48216;BME280;34005;48.844;10.098;2023-03-04T07:40:08;97180.19;;;0.73;66.46
48216;BME280;34005;48.844;10.098;2023-03-04T07:42:35;97176.41;;;0.66;66.88
48216;BME280;34005;48.844;10.098;2023-03-04T07:45:04;97178.66;;;0.58;66.93
48216;BME280;34005;48.844;10.098;2023-03-04T07:47:35;97181.97;;;0.47;67.18
48216;BME280;34005;48.844;10.098;2023-03-04T07:50:03;97181.34;;;0.44;67.70
48216;BME280;34005;48.844;10.098;2023-03-04T07:52:32;97182.50;;;0.39;67.97
48216;BME280;34005;48.844;10.098;2023-03-04T07:55:00;97178.28;;;0.38;67.98
48216;BME280;34005;48.844;10.098;2023-03-04T07:57:28;97179.94;;;0.39;67.73
48216;BME280;34005;48.844;10.098;2023-03-04T07:59:55;97178.28;;;0.38;68.22
48216;BME280;34005;48.844;10.098;2023-03-04T08:02:23;97182.38;;;0.41;67.87
48216;BME280;34005;48.844;10.098;2023-03-04T08:04:50;97180.75;;;0.40;67.91
48216;BME280;34005;48.844;10.098;2023-03-04T08:07:18;97192.75;;;0.39;67.88
48216;BME280;34005;48.844;10.098;2023-03-04T08:09:47;97201.47;;;0.37;68.24
48216;BME280;34005;48.844;10.098;2023-03-04T08:12:15;97188.13;;;0.32;67.98
48216;BME280;34005;48.844;10.098;2023-03-04T08:14:42;97187.63;;;0.27;68.51
48216;BME280;34005;48.844;10.098;2023-03-04T08:17:10;97190.28;;;0.25;68.50
48216;BME280;34005;48.844;10.098;2023-03-04T08:19:40;97185.97;;;0.26;68.68
48216;BME280;34005;48.844;10.098;2023-03-04T08:22:07;97192.63;;;0.28;68.81
48216;BME280;34005;48.844;10.098;2023-03-04T08:24:35;97189.16;;;0.29;69.14
48216;BME280;34005;48.844;10.098;2023-03-04T08:27:04;97187.00;;;0.36;69.41
48216;BME280;34005;48.844;10.098;2023-03-04T08:29:32;97189.25;;;0.40;68.69
48216;BME280;34005;48.844;10.098;2023-03-04T08:31:59;97199.03;;;0.35;68.43
48216;BME280;34005;48.844;10.098;2023-03-04T08:34:27;97204.56;;;0.29;68.73
48216;BME280;34005;48.844;10.098;2023-03-04T08:36:55;97194.06;;;0.32;68.85
48216;BME280;34005;48.844;10.098;2023-03-04T08:39:22;97200.16;;;0.31;68.68
48216;BME280;34005;48.844;10.098;2023-03-04T08:41:50;97196.56;;;0.34;68.63
48216;BME280;34005;48.844;10.098;2023-03-04T08:44:19;97199.03;;;0.35;68.91
48216;BME280;34005;48.844;10.098;2023-03-04T08:46:46;97197.78;;;0.41;68.93
48216;BME280;34005;48.844;10.098;2023-03-04T08:49:14;97202.00;;;0.55;69.19
48216;BME280;34005;48.844;10.098;2023-03-04T08:51:41;97201.13;;;0.67;68.43
48216;BME280;34005;48.844;10.098;2023-03-04T08:54:10;97209.03;;;0.77;68.28
48216;BME280;34005;48.844;10.098;2023-03-04T08:56:39;97200.59;;;0.88;68.19
48216;BME280;34005;48.844;10.098;2023-03-04T08:59:06;97197.19;;;0.87;67.54
48216;BME280;34005;48.844;10.098;2023-03-04T09:01:35;97207.13;;;0.92;68.43
48216;BME280;34005;48.844;10.098;2023-03-04T09:04:03;97200.03;;;0.95;67.59
48216;BME280;34005;48.844;10.098;2023-03-04T09:06:31;97209.81;;;1.03;67.97
48216;BME280;34005;48.844;10.098;2023-03-04T09:08:58;97205.97;;;1.09;67.77
48216;BME280;34005;48.844;10.098;2023-03-04T09:11:26;97210.28;;;1.08;67.54
48216;BME280;34005;48.844;10.098;2023-03-04T09:13:53;97200.34;;;1.03;67.61
48216;BME280;34005;48.844;10.098;2023-03-04T09:16:21;97205.16;;;1.08;67.76
48216;BME280;34005;48.844;10.098;2023-03-04T09:18:51;97205.22;;;1.19;67.34
48216;BME280;34005;48.844;10.098;2023-03-04T09:21:18;97198.94;;;1.23;66.95
48216;BME280;34005;48.844;10.098;2023-03-04T09:23:46;97204.78;;;1.26;67.41
48216;BME280;34005;48.844;10.098;2023-03-04T09:26:16;97203.31;;;1.34;66.81
48216;BME280;34005;48.844;10.098;2023-03-04T09:28:43;97198.78;;;1.38;67.02
48216;BME280;34005;48.844;10.098;2023-03-04T09:31:12;97204.88;;;1.48;67.34
48216;BME280;34005;48.844;10.098;2023-03-04T09:33:40;97212.16;;;1.54;66.75
48216;BME280;34005;48.844;10.098;2023-03-04T09:36:11;97209.50;;;1.56;66.80
48216;BME280;34005;48.844;10.098;2023-03-04T09:38:40;97210.31;;;1.56;66.72
48216;BME280;34005;48.844;10.098;2023-03-04T09:41:11;97208.34;;;1.60;67.13
48216;BME280;34005;48.844;10.098;2023-03-04T09:43:41;97206.84;;;1.69;67.16
48216;BME280;34005;48.844;10.098;2023-03-04T09:46:12;97207.59;;;1.82;66.60
48216;BME280;34005;48.844;10.098;2023-03-04T09:48:44;97205.25;;;1.90;66.68
48216;BME280;34005;48.844;10.098;2023-03-04T09:51:34;97206.91;;;1.91;66.41
48216;BME280;34005;48.844;10.098;2023-03-04T09:54:08;97202.69;;;1.90;66.24
48216;BME280;34005;48.844;10.098;2023-03-04T09:56:38;97210.41;;;1.90;66.03
48216;BME280;34005;48.844;10.098;2023-03-04T09:59:14;97206.22;;;1.89;66.61
48216;BME280;34005;48.844;10.098;2023-03-04T10:01:47;97209.03;;;1.86;66.79
48216;BME280;34005;48.844;10.098;2023-03-04T10:04:23;97200.69;;;1.82;66.76
48216;BME280;34005;48.844;10.098;2023-03-04T10:06:54;97198.94;;;1.83;67.08
48216;BME280;34005;48.844;10.098;2023-03-04T10:09:25;97200.13;;;1.90;66.40
48216;BME280;34005;48.844;10.098;2023-03-04T10:12:00;97199.66;;;1.85;66.11
48216;BME280;34005;48.844;10.098;2023-03-04T10:14:32;97204.09;;;1.83;66.85
48216;BME280;34005;48.844;10.098;2023-03-04T10:17:06;97198.38;;;1.91;66.31
48216;BME280;34005;48.844;10.098;2023-03-04T10:19:44;97196.63;;;1.91;66.47
48216;BME280;34005;48.844;10.098;2023-03-04T10:22:23;97195.09;;;1.89;66.44
48216;BME280;34005;48.844;10.098;2023-03-04T10:24:55;97199.19;;;1.91;65.96
48216;BME280;34005;48.844;10.098;2023-03-04T10:27:23;97194.78;;;1.93;65.85
48216;BME280;34005;48.844;10.098;2023-03-04T10:29:52;97193.59;;;1.86;65.98
48216;BME280;34005;48.844;10.098;2023-03-04T10:32:19;97196.72;;;1.78;66.24
48216;BME280;34005;48.844;10.098;2023-03-04T10:34:47;97199.00;;;1.70;66.61
48216;BME280;34005;48.844;10.098;2023-03-04T10:37:16;97198.44;;;1.67;66.58
48216;BME280;34005;48.844;10.098;2023-03-04T10:39:45;97197.22;;;1.59;66.57
48216;BME280;34005;48.844;10.098;2023-03-04T10:42:27;97196.19;;;1.62;66.95
48216;BME280;34005;48.844;10.098;2023-03-04T10:45:04;97202.63;;;1.68;66.96
48216;BME280;34005;48.844;10.098;2023-03-04T10:47:51;97199.72;;;1.72;67.62
48216;BME280;34005;48.844;10.098;2023-03-04T10:50:21;97200.22;;;1.77;67.27
48216;BME280;34005;48.844;10.098;2023-03-04T10:52:51;97193.78;;;1.83;67.11
48216;BME280;34005;48.844;10.098;2023-03-04T10:55:22;97201.41;;;1.84;66.90
48216;BME280;34005;48.844;10.098;2023-03-04T10:57:52;97189.59;;;1.82;67.09
48216;BME280;34005;48.844;10.098;2023-03-04T11:00:26;97186.56;;;1.88;67.27
48216;BME280;34005;48.844;10.098;2023-03-04T11:03:22;97181.66;;;1.96;67.03
48216;BME280;34005;48.844;10.098;2023-03-04T11:06:04;97189.03;;;2.01;67.46
48216;BME280;34005;48.844;10.098;2023-03-04T11:08:33;97177.94;;;2.00;66.98
48216;BME280;34005;48.844;10.098;2023-03-04T11:11:00;97178.19;;;2.09;66.85
48216;BME280;34005;48.844;10.098;2023-03-04T11:13:29;97171.75;;;2.14;66.05
48216;BME280;34005;48.844;10.098;2023-03-04T11:16:00;97183.25;;;2.21;66.50
48216;BME280;34005;48.844;10.098;2023-03-04T11:18:33;97174.94;;;2.29;66.36
48216;BME280;34005;48.844;10.098;2023-03-04T11:21:14;97168.97;;;2.29;66.21
48216;BME280;34005;48.844;10.098;2023-03-04T11:23:48;97174.22;;;2.27;66.36
48216;BME280;34005;48.844;10.098;2023-03-04T11:26:18;97162.50;;;2.23;65.91
48216;BME280;34005;48.844;10.098;2023-03-04T11:28:51;97166.84;;;2.22;65.90
48216;BME280;34005;48.844;10.098;2023-03-04T11:31:25;97157.25;;;2.24;65.84
48216;BME280;34005;48.844;10.098;2023-03-04T11:33:57;97163.94;;;2.27;65.84
48216;BME280;34005;48.844;10.098;2023-03-04T11:36:33;97159.03;;;2.35;64.98
48216;BME280;34005;48.844;10.098;2023-03-04T11:39:12;97155.03;;;2.42;64.94
48216;BME280;34005;48.844;10.098;2023-03-04T11:41:45;97156.59;;;2.45;64.92
48216;BME280;34005;48.844;10.098;2023-03-04T11:44:14;97156.09;;;2.51;64.62
48216;BME280;34005;48.844;10.098;2023-03-04T11:46:51;97156.44;;;2.58;64.67
48216;BME280;34005;48.844;10.098;2023-03-04T11:49:32;97158.91;;;2.59;64.24
48216;BME280;34005;48.844;10.098;2023-03-04T11:52:15;97150.97;;;2.62;64.61
48216;BME280;34005;48.844;10.098;2023-03-04T11:55:04;97143.56;;;2.69;64.60
48216;BME280;34005;48.844;10.098;2023-03-04T11:57:45;97136.06;;;2.66;63.92
48216;BME280;34005;48.844;10.098;2023-03-04T12:00:24;97139.09;;;2.60;64.87
48216;BME280;34005;48.844;10.098;2023-03-04T12:06:17;97134.19;;;2.68;64.15
48216;BME280;34005;48.844;10.098;2023-03-04T12:08:53;97127.63;;;2.64;64.15
48216;BME280;34005;48.844;10.098;2023-03-04T12:11:35;97121.66;;;2.63;63.69
48216;BME280;34005;48.844;10.098;2023-03-04T12:14:15;97120.06;;;2.62;63.03
48216;BME280;34005;48.844;10.098;2023-03-04T12:17:10;97118.41;;;2.61;63.90
48216;BME280;34005;48.844;10.098;2023-03-04T12:20:07;97111.38;;;2.63;64.39
48216;BME280;34005;48.844;10.098;2023-03-04T12:22:44;97114.41;;;2.68;64.18
48216;BME280;34005;48.844;10.098;2023-03-04T12:25:37;97105.16;;;2.66;61.90
48216;BME280;34005;48.844;10.098;2023-03-04T12:28:19;97102.34;;;2.58;61.62
48216;BME280;34005;48.844;10.098;2023-03-04T12:31:02;97100.38;;;2.50;62.39
48216;BME280;34005;48.844;10.098;2023-03-04T12:33:41;97097.09;;;2.48;61.96
48216;BME280;34005;48.844;10.098;2023-03-04T12:36:15;97091.97;;;2.48;62.35
48216;BME280;34005;48.844;10.098;2023-03-04T12:38:58;97088.56;;;2.47;61.41
48216;BME280;34005;48.844;10.098;2023-03-04T12:41:35;97087.06;;;2.45;61.89
48216;BME280;34005;48.844;10.098;2023-03-04T12:44:13;97078.75;;;2.41;61.07
48216;BME280;34005;48.844;10.098;2023-03-04T12:47:01;97073.47;;;2.43;62.00
48216;BME280;34005;48.844;10.098;2023-03-04T12:49:46;97077.56;;;2.45;62.38
48216;BME280;34005;48.844;10.098;2023-03-04T12:52:22;97071.94;;;2.52;61.45
48216;BME280;34005;48.844;10.098;2023-03-04T12:54:55;97070.63;;;2.57;61.52
48216;BME280;34005;48.844;10.098;2023-03-04T12:57:25;97078.84;;;2.62;61.93
48216;BME280;34005;48.844;10.098;2023-03-04T13:00:06;97073.31;;;2.67;61.72
48216;BME280;34005;48.844;10.098;2023-03-04T13:02:59;97070.16;;;2.63;60.57
48216;BME280;34005;48.844;10.098;2023-03-04T13:05:43;97065.75;;;2.54;60.79
48216;BME280;34005;48.844;10.098;2023-03-04T13:08:28;97064.34;;;2.50;61.15
48216;BME280;34005;48.844;10.098;2023-03-04T13:11:02;97065.84;;;2.53;62.61
48216;BME280;34005;48.844;10.098;2023-03-04T13:13:35;97069.56;;;2.60;63.98
48216;BME280;34005;48.844;10.098;2023-03-04T13:16:14;97071.78;;;2.64;62.24
48216;BME280;34005;48.844;10.098;2023-03-04T13:22:31;97065.09;;;2.73;61.35